sensor_id;sensor_type;location;lat;lon;timestamp;temperature;humidity
4183;DHT22;2105;52.300;9.182;2023-07-16T00:01:14;20.00;1.00
4183;DHT22;2105;52.300;9.182;2023-07-16T00:03:41;20.00;99.90
4183;DHT22;2105;52.300;9.182;2023-07-16T00:06:08;19.90;99.90
4183;DHT22;2105;52.300;9.182;2023-07-16T00:08:36;19.90;1.00
4183;DHT22;2105;52.300;9.182;2023-07-16T00:11:03;19.90;1.00
4183;DHT22;2105;52.300;9.182;2023-07-16T00:13:30;19.80;1.00
4183;DHT22;2105;52.300;9.182;2023-07-16T00:15:56;19.70;99.90
4183;DHT22;2105;52.300;9.182;2023-07-16T00:18:23;19.70;99.90
4183;DHT22;2105;52.300;9.182;2023-07-16T00:20:50;19.70;1.00
4183;DHT22;2105;52.300;9.182;2023-07-16T00:23:16;19.70;99.90
4183;DHT22;2105;52.300;9.182;2023-07-16T00:25:45;19.80;1.00
4183;DHT22;2105;52.300;9.182;2023-07-16T00:28:12;19.90;99.90
4183;DHT22;2105;52.300;9.182;2023-07-16T00:30:38;19.90;1.00
4183;DHT22;2105;52.300;9.182;2023-07-16T00:33:05;19.80;1.00
4183;DHT22;2105;52.300;9.182;2023-07-16T00:35:32;19.90;1.00
4183;DHT22;2105;52.300;9.182;2023-07-16T00:37:59;19.90;1.00
4183;DHT22;2105;52.300;9.182;2023-07-16T00:40:25;19.90;99.90
4183;DHT22;2105;52.300;9.182;2023-07-16T00:42:53;19.90;99.90
4183;DHT22;2105;52.300;9.182;2023-07-16T00:45:20;19.90;26.50
4183;DHT22;2105;52.300;9.182;2023-07-16T00:47:47;20.00;99.90
4183;DHT22;2105;52.300;9.182;2023-07-16T00:50:14;20.10;96.30
4183;DHT22;2105;52.300;9.182;2023-07-16T00:52:41;20.20;1.00
4183;DHT22;2105;52.300;9.182;2023-07-16T00:55:09;20.10;99.90
4183;DHT22;2105;52.300;9.182;2023-07-16T00:57:36;20.10;1.00
4183;DHT22;2105;52.300;9.182;2023-07-16T01:00:06;20.00;1.00
4183;DHT22;2105;52.300;9.182;2023-07-16T01:02:33;20.00;1.00
4183;DHT22;2105;52.300;9.182;2023-07-16T01:05:00;20.00;99.90
4183;DHT22;2105;52.300;9.182;2023-07-16T01:07:29;20.00;99.90
4183;DHT22;2105;52.300;9.182;2023-07-16T01:09:58;20.00;1.00
4183;DHT22;2105;52.300;9.182;2023-07-16T01:12:26;19.90;1.00
4183;DHT22;2105;52.300;9.182;2023-07-16T01:14:53;19.90;1.00
4183;DHT22;2105;52.300;9.182;2023-07-16T01:17:21;19.90;1.00
4183;DHT22;2105;52.300;9.182;2023-07-16T01:19:48;19.90;1.00
4183;DHT22;2105;52.300;9.182;2023-07-16T01:22:27;19.90;1.00
4183;DHT22;2105;52.300;9.182;2023-07-16T01:25:05;19.90;1.00
4183;DHT22;2105;52.300;9.182;2023-07-16T01:27:50;19.90;1.00
4183;DHT22;2105;52.300;9.182;2023-07-16T01:30:21;19.80;1.00
4183;DHT22;2105;52.300;9.182;2023-07-16T01:32:48;19.90;8.50
4183;DHT22;2105;52.300;9.182;2023-07-16T01:35:16;19.80;99.90
4183;DHT22;2105;52.300;9.182;2023-07-16T01:37:43;19.80;99.90
4183;DHT22;2105;52.300;9.182;2023-07-16T01:40:10;19.70;99.90
4183;DHT22;2105;52.300;9.182;2023-07-16T01:42:37;19.70;1.00
4183;DHT22;2105;52.300;9.182;2023-07-16T01:45:05;19.70;99.90
4183;DHT22;2105;52.300;9.182;2023-07-16T01:47:39;19.70;99.90
4183;DHT22;2105;52.300;9.182;2023-07-16T01:50:07;19.70;99.90
4183;DHT22;2105;52.300;9.182;2023-07-16T01:52:34;19.60;99.90
4183;DHT22;2105;52.300;9.182;2023-07-16T01:55:01;19.70;1.00
4183;DHT22;2105;52.300;9.182;2023-07-16T01:57:27;19.70;99.90
4183;DHT22;2105;52.300;9.182;2023-07-16T01:59:54;19.80;99.90
4183;DHT22;2105;52.300;9.182;2023-07-16T02:02:21;19.80;1.80
4183;DHT22;2105;52.300;9.182;2023-07-16T02:04:49;19.70;1.00
4183;DHT22;2105;52.300;9.182;2023-07-16T02:07:15;19.80;1.00
4183;DHT22;2105;52.300;9.182;2023-07-16T02:09:42;19.80;1.00
4183;DHT22;2105;52.300;9.182;2023-07-16T02:12:09;19.80;1.00
4183;DHT22;2105;52.300;9.182;2023-07-16T02:14:36;19.90;6.40
4183;DHT22;2105;52.300;9.182;2023-07-16T02:17:02;19.70;99.90
4183;DHT22;2105;52.300;9.182;2023-07-16T02:19:29;19.70;99.90
4183;DHT22;2105;52.300;9.182;2023-07-16T02:21:57;19.60;1.00
4183;DHT22;2105;52.300;9.182;2023-07-16T02:24:24;19.50;1.00
4183;DHT22;2105;52.300;9.182;2023-07-16T02:26:50;19.50;1.00
4183;DHT22;2105;52.300;9.182;2023-07-16T02:29:17;19.50;99.90
4183;DHT22;2105;52.300;9.182;2023-07-16T02:31:44;19.40;1.00
4183;DHT22;2105;52.300;9.182;2023-07-16T02:34:13;19.30;1.00
4183;DHT22;2105;52.300;9.182;2023-07-16T02:36:40;19.30;99.90
4183;DHT22;2105;52.300;9.182;2023-07-16T02:39:07;19.30;99.90
4183;DHT22;2105;52.300;9.182;2023-07-16T02:41:34;19.20;99.90
4183;DHT22;2105;52.300;9.182;2023-07-16T02:44:03;19.20;99.90
4183;DHT22;2105;52.300;9.182;2023-07-16T02:46:30;19.20;99.90
4183;DHT22;2105;52.300;9.182;2023-07-16T02:48:57;19.20;99.90
4183;DHT22;2105;52.300;9.182;2023-07-16T02:51:23;19.20;99.90
4183;DHT22;2105;52.300;9.182;2023-07-16T02:53:50;19.20;24.40
4183;DHT22;2105;52.300;9.182;2023-07-16T02:56:18;19.20;1.00
4183;DHT22;2105;52.300;9.182;2023-07-16T02:58:45;19.20;1.00
4183;DHT22;2105;52.300;9.182;2023-07-16T03:01:12;19.20;1.00
4183;DHT22;2105;52.300;9.182;2023-07-16T03:03:39;19.20;99.90
4183;DHT22;2105;52.300;9.182;2023-07-16T03:06:06;19.10;99.90
4183;DHT22;2105;52.300;9.182;2023-07-16T03:08:33;19.10;99.90
4183;DHT22;2105;52.300;9.182;2023-07-16T03:11:00;19.10;99.90
4183;DHT22;2105;52.300;9.182;2023-07-16T03:13:28;19.10;99.90
4183;DHT22;2105;52.300;9.182;2023-07-16T03:15:55;19.10;99.90
4183;DHT22;2105;52.300;9.182;2023-07-16T03:18:22;19.20;99.90
4183;DHT22;2105;52.300;9.182;2023-07-16T03:20:48;19.10;99.90
4183;DHT22;2105;52.300;9.182;2023-07-16T03:23:15;19.10;99.90
4183;DHT22;2105;52.300;9.182;2023-07-16T03:25:42;19.20;99.90
4183;DHT22;2105;52.300;9.182;2023-07-16T03:28:08;19.10;99.90
4183;DHT22;2105;52.300;9.182;2023-07-16T03:30:36;19.10;99.90
4183;DHT22;2105;52.300;9.182;2023-07-16T03:33:04;19.10;99.90
4183;DHT22;2105;52.300;9.182;2023-07-16T03:35:30;19.10;99.90
4183;DHT22;2105;52.300;9.182;2023-07-16T03:37:57;19.00;99.90
4183;DHT22;2105;52.300;9.182;2023-07-16T03:40:25;18.90;99.90
4183;DHT22;2105;52.300;9.182;2023-07-16T03:42:52;18.90;99.90
4183;DHT22;2105;52.300;9.182;2023-07-16T03:45:19;18.80;1.00
4183;DHT22;2105;52.300;9.182;2023-07-16T03:47:47;18.80;1.00
4183;DHT22;2105;52.300;9.182;2023-07-16T03:50:14;18.80;32.00
4183;DHT22;2105;52.300;9.182;2023-07-16T03:52:41;18.80;99.90
4183;DHT22;2105;52.300;9.182;2023-07-16T03:55:08;18.70;99.90
4183;DHT22;2105;52.300;9.182;2023-07-16T03:57:35;18.80;99.90
4183;DHT22;2105;52.300;9.182;2023-07-16T04:00:02;18.70;99.90
4183;DHT22;2105;52.300;9.182;2023-07-16T04:02:29;18.70;99.90
4183;DHT22;2105;52.300;9.182;2023-07-16T04:04:57;18.70;99.90
4183;DHT22;2105;52.300;9.182;2023-07-16T04:07:24;18.70;99.90
4183;DHT22;2105;52.300;9.182;2023-07-16T04:12:19;18.80;1.00
4183;DHT22;2105;52.300;9.182;2023-07-16T04:14:46;18.80;99.90
4183;DHT22;2105;52.300;9.182;2023-07-16T04:17:13;18.80;93.90
4183;DHT22;2105;52.300;9.182;2023-07-16T04:19:40;18.80;99.90
4183;DHT22;2105;52.300;9.182;2023-07-16T04:22:08;18.80;99.90
4183;DHT22;2105;52.300;9.182;2023-07-16T04:24:34;18.80;23.80
4183;DHT22;2105;52.300;9.182;2023-07-16T04:27:01;18.80;1.00
4183;DHT22;2105;52.300;9.182;2023-07-16T04:29:28;18.80;1.00
4183;DHT22;2105;52.300;9.182;2023-07-16T04:31:55;18.80;1.00
4183;DHT22;2105;52.300;9.182;2023-07-16T04:34:21;18.90;1.00
4183;DHT22;2105;52.300;9.182;2023-07-16T04:36:48;19.00;99.90
4183;DHT22;2105;52.300;9.182;2023-07-16T04:39:16;19.00;1.00
4183;DHT22;2105;52.300;9.182;2023-07-16T04:41:43;19.00;1.00
4183;DHT22;2105;52.300;9.182;2023-07-16T04:44:10;19.00;99.90
4183;DHT22;2105;52.300;9.182;2023-07-16T04:46:36;19.00;1.00
4183;DHT22;2105;52.300;9.182;2023-07-16T04:49:04;19.00;1.00
4183;DHT22;2105;52.300;9.182;2023-07-16T04:51:31;19.10;1.00
4183;DHT22;2105;52.300;9.182;2023-07-16T04:53:58;19.10;99.90
4183;DHT22;2105;52.300;9.182;2023-07-16T04:56:27;19.10;1.00
4183;DHT22;2105;52.300;9.182;2023-07-16T04:58:54;19.10;1.00
4183;DHT22;2105;52.300;9.182;2023-07-16T05:01:20;19.10;1.00
4183;DHT22;2105;52.300;9.182;2023-07-16T05:03:47;19.10;1.00
4183;DHT22;2105;52.300;9.182;2023-07-16T05:06:14;19.30;1.00
4183;DHT22;2105;52.300;9.182;2023-07-16T05:08:40;19.30;1.00
4183;DHT22;2105;52.300;9.182;2023-07-16T05:11:07;19.30;99.90
4183;DHT22;2105;52.300;9.182;2023-07-16T05:13:35;19.20;99.90
4183;DHT22;2105;52.300;9.182;2023-07-16T05:16:02;19.20;99.90
4183;DHT22;2105;52.300;9.182;2023-07-16T05:18:28;19.30;99.90
4183;DHT22;2105;52.300;9.182;2023-07-16T05:20:55;19.30;1.00
4183;DHT22;2105;52.300;9.182;2023-07-16T05:23:22;19.30;99.90
4183;DHT22;2105;52.300;9.182;2023-07-16T05:25:49;19.30;99.90
4183;DHT22;2105;52.300;9.182;2023-07-16T05:28:17;19.40;99.90
4183;DHT22;2105;52.300;9.182;2023-07-16T05:30:45;19.40;1.00
4183;DHT22;2105;52.300;9.182;2023-07-16T05:33:12;19.40;1.00
4183;DHT22;2105;52.300;9.182;2023-07-16T05:35:39;19.60;1.00
4183;DHT22;2105;52.300;9.182;2023-07-16T05:38:06;19.60;1.00
4183;DHT22;2105;52.300;9.182;2023-07-16T05:40:33;19.70;99.90
4183;DHT22;2105;52.300;9.182;2023-07-16T05:42:59;19.70;99.90
4183;DHT22;2105;52.300;9.182;2023-07-16T05:45:26;19.80;79.50
4183;DHT22;2105;52.300;9.182;2023-07-16T05:47:54;19.90;99.90
4183;DHT22;2105;52.300;9.182;2023-07-16T05:50:21;19.90;73.30
4183;DHT22;2105;52.300;9.182;2023-07-16T05:52:48;20.00;1.00
4183;DHT22;2105;52.300;9.182;2023-07-16T05:55:14;20.00;1.00
4183;DHT22;2105;52.300;9.182;2023-07-16T05:57:41;20.00;1.00
4183;DHT22;2105;52.300;9.182;2023-07-16T06:00:08;20.20;1.00
4183;DHT22;2105;52.300;9.182;2023-07-16T06:02:35;20.10;99.90
4183;DHT22;2105;52.300;9.182;2023-07-16T06:05:04;20.10;99.90
4183;DHT22;2105;52.300;9.182;2023-07-16T06:07:31;20.00;99.90
4183;DHT22;2105;52.300;9.182;2023-07-16T06:09:58;20.10;99.90
4183;DHT22;2105;52.300;9.182;2023-07-16T06:12:25;20.20;99.90
4183;DHT22;2105;52.300;9.182;2023-07-16T06:14:53;20.20;1.00
4183;DHT22;2105;52.300;9.182;2023-07-16T06:17:19;20.20;1.00
4183;DHT22;2105;52.300;9.182;2023-07-16T06:19:46;20.30;1.00
4183;DHT22;2105;52.300;9.182;2023-07-16T06:22:16;20.20;1.00
4183;DHT22;2105;52.300;9.182;2023-07-16T06:24:43;20.30;1.00
4183;DHT22;2105;52.300;9.182;2023-07-16T06:27:10;20.20;99.90
4183;DHT22;2105;52.300;9.182;2023-07-16T06:29:37;20.20;99.90
4183;DHT22;2105;52.300;9.182;2023-07-16T06:32:04;20.20;99.90
4183;DHT22;2105;52.300;9.182;2023-07-16T06:34:31;20.40;99.90
4183;DHT22;2105;52.300;9.182;2023-07-16T06:36:57;20.40;99.90
4183;DHT22;2105;52.300;9.182;2023-07-16T06:39:25;20.50;99.90
4183;DHT22;2105;52.300;9.182;2023-07-16T06:41:52;20.50;32.00
4183;DHT22;2105;52.300;9.182;2023-07-16T06:44:19;20.50;45.10
4183;DHT22;2105;52.300;9.182;2023-07-16T06:46:46;20.50;1.00
4183;DHT22;2105;52.300;9.182;2023-07-16T06:49:12;20.40;1.00
4183;DHT22;2105;52.300;9.182;2023-07-16T06:51:39;20.30;1.00
4183;DHT22;2105;52.300;9.182;2023-07-16T06:54:06;20.20;1.00
4183;DHT22;2105;52.300;9.182;2023-07-16T06:56:34;20.20;1.00
4183;DHT22;2105;52.300;9.182;2023-07-16T06:59:01;20.10;1.00
4183;DHT22;2105;52.300;9.182;2023-07-16T07:01:28;20.20;1.00
4183;DHT22;2105;52.300;9.182;2023-07-16T07:03:55;20.50;1.00
4183;DHT22;2105;52.300;9.182;2023-07-16T07:06:22;20.40;1.00
4183;DHT22;2105;52.300;9.182;2023-07-16T07:08:48;20.80;1.00
4183;DHT22;2105;52.300;9.182;2023-07-16T07:11:15;20.80;1.00
4183;DHT22;2105;52.300;9.182;2023-07-16T07:13:43;20.90;1.00
4183;DHT22;2105;52.300;9.182;2023-07-16T07:16:10;21.40;1.00
4183;DHT22;2105;52.300;9.182;2023-07-16T07:18:36;22.00;1.00
4183;DHT22;2105;52.300;9.182;2023-07-16T07:21:03;22.10;1.00
4183;DHT22;2105;52.300;9.182;2023-07-16T07:23:30;22.20;1.00
4183;DHT22;2105;52.300;9.182;2023-07-16T07:25:56;22.10;1.00
4183;DHT22;2105;52.300;9.182;2023-07-16T07:28:23;22.20;1.00
4183;DHT22;2105;52.300;9.182;2023-07-16T07:30:51;21.90;1.00
4183;DHT22;2105;52.300;9.182;2023-07-16T07:33:18;21.80;1.00
4183;DHT22;2105;52.300;9.182;2023-07-16T07:35:45;21.90;1.00
4183;DHT22;2105;52.300;9.182;2023-07-16T07:38:11;22.20;1.00
4183;DHT22;2105;52.300;9.182;2023-07-16T07:40:38;22.10;1.00
4183;DHT22;2105;52.300;9.182;2023-07-16T07:43:05;22.40;1.00
4183;DHT22;2105;52.300;9.182;2023-07-16T07:45:32;22.50;99.90
4183;DHT22;2105;52.300;9.182;2023-07-16T07:48:00;22.70;99.90
4183;DHT22;2105;52.300;9.182;2023-07-16T07:50:26;22.90;99.90
4183;DHT22;2105;52.300;9.182;2023-07-16T07:52:54;22.90;99.90
4183;DHT22;2105;52.300;9.182;2023-07-16T07:55:21;22.30;99.90
4183;DHT22;2105;52.300;9.182;2023-07-16T07:57:48;21.80;1.00
4183;DHT22;2105;52.300;9.182;2023-07-16T08:00:14;21.60;1.00
4183;DHT22;2105;52.300;9.182;2023-07-16T08:02:41;21.50;1.00
4183;DHT22;2105;52.300;9.182;2023-07-16T08:05:10;21.60;1.00
4183;DHT22;2105;52.300;9.182;2023-07-16T08:07:37;21.30;1.00
4183;DHT22;2105;52.300;9.182;2023-07-16T08:10:04;21.10;1.00
4183;DHT22;2105;52.300;9.182;2023-07-16T08:12:31;21.00;1.00
4183;DHT22;2105;52.300;9.182;2023-07-16T08:14:58;21.00;1.00
4183;DHT22;2105;52.300;9.182;2023-07-16T08:17:25;20.80;1.00
4183;DHT22;2105;52.300;9.182;2023-07-16T08:19:51;20.80;1.00
4183;DHT22;2105;52.300;9.182;2023-07-16T08:22:19;21.00;1.00
4183;DHT22;2105;52.300;9.182;2023-07-16T08:24:46;21.30;1.00
4183;DHT22;2105;52.300;9.182;2023-07-16T08:27:13;21.50;1.00
4183;DHT22;2105;52.300;9.182;2023-07-16T08:29:39;21.60;1.00
4183;DHT22;2105;52.300;9.182;2023-07-16T08:32:07;21.60;1.00
4183;DHT22;2105;52.300;9.182;2023-07-16T08:34:34;21.70;1.00
4183;DHT22;2105;52.300;9.182;2023-07-16T08:37:00;21.70;1.00
4183;DHT22;2105;52.300;9.182;2023-07-16T08:39:28;21.90;1.00
4183;DHT22;2105;52.300;9.182;2023-07-16T08:41:55;22.10;99.90
4183;DHT22;2105;52.300;9.182;2023-07-16T08:44:23;22.10;99.90
4183;DHT22;2105;52.300;9.182;2023-07-16T08:46:50;22.20;99.90
4183;DHT22;2105;52.300;9.182;2023-07-16T08:49:18;22.30;99.90
4183;DHT22;2105;52.300;9.182;2023-07-16T08:51:47;22.20;99.90
4183;DHT22;2105;52.300;9.182;2023-07-16T08:54:14;22.30;99.90
4183;DHT22;2105;52.300;9.182;2023-07-16T08:56:44;22.40;99.90
4183;DHT22;2105;52.300;9.182;2023-07-16T08:59:11;22.20;99.90
4183;DHT22;2105;52.300;9.182;2023-07-16T09:01:38;22.30;99.90
4183;DHT22;2105;52.300;9.182;2023-07-16T09:04:04;22.40;99.90
4183;DHT22;2105;52.300;9.182;2023-07-16T09:06:31;22.50;99.90
4183;DHT22;2105;52.300;9.182;2023-07-16T09:08:58;22.50;99.90
4183;DHT22;2105;52.300;9.182;2023-07-16T09:11:25;22.70;99.90
4183;DHT22;2105;52.300;9.182;2023-07-16T09:13:54;22.60;99.90
4183;DHT22;2105;52.300;9.182;2023-07-16T09:16:21;22.90;99.90
4183;DHT22;2105;52.300;9.182;2023-07-16T09:18:48;23.30;99.90
4183;DHT22;2105;52.300;9.182;2023-07-16T09:21:15;23.40;99.90
4183;DHT22;2105;52.300;9.182;2023-07-16T09:23:42;23.10;99.90
4183;DHT22;2105;52.300;9.182;2023-07-16T09:26:09;23.00;99.90
4183;DHT22;2105;52.300;9.182;2023-07-16T09:28:35;22.60;99.90
4183;DHT22;2105;52.300;9.182;2023-07-16T09:31:07;22.50;99.90
4183;DHT22;2105;52.300;9.182;2023-07-16T09:33:34;22.20;99.90
4183;DHT22;2105;52.300;9.182;2023-07-16T09:36:01;22.30;99.90
4183;DHT22;2105;52.300;9.182;2023-07-16T09:38:29;22.40;99.90
4183;DHT22;2105;52.300;9.182;2023-07-16T09:40:56;22.50;99.90
4183;DHT22;2105;52.300;9.182;2023-07-16T09:43:23;23.00;99.90
4183;DHT22;2105;52.300;9.182;2023-07-16T09:45:50;23.10;99.90
4183;DHT22;2105;52.300;9.182;2023-07-16T09:48:18;23.20;99.90
4183;DHT22;2105;52.300;9.182;2023-07-16T09:50:50;23.40;99.90
4183;DHT22;2105;52.300;9.182;2023-07-16T09:53:19;23.30;99.90
4183;DHT22;2105;52.300;9.182;2023-07-16T09:55:46;23.50;99.90
4183;DHT22;2105;52.300;9.182;2023-07-16T09:58:14;23.30;99.90
4183;DHT22;2105;52.300;9.182;2023-07-16T10:00:46;23.40;99.90
4183;DHT22;2105;52.300;9.182;2023-07-16T10:03:15;23.50;99.90
4183;DHT22;2105;52.300;9.182;2023-07-16T10:05:43;23.60;99.90
4183;DHT22;2105;52.300;9.182;2023-07-16T10:08:17;23.80;99.90
4183;DHT22;2105;52.300;9.182;2023-07-16T10:10:46;23.50;99.90
4183;DHT22;2105;52.300;9.182;2023-07-16T10:13:14;23.20;99.90
4183;DHT22;2105;52.300;9.182;2023-07-16T10:15:51;23.40;99.90
4183;DHT22;2105;52.300;9.182;2023-07-16T10:18:23;23.80;99.90
4183;DHT22;2105;52.300;9.182;2023-07-16T10:20:52;23.80;99.90
4183;DHT22;2105;52.300;9.182;2023-07-16T10:23:19;23.80;99.90
4183;DHT22;2105;52.300;9.182;2023-07-16T10:25:58;23.70;99.90
4183;DHT22;2105;52.300;9.182;2023-07-16T10:28:25;24.10;99.90
4183;DHT22;2105;52.300;9.182;2023-07-16T10:30:52;23.90;99.90
4183;DHT22;2105;52.300;9.182;2023-07-16T10:33:19;23.80;99.90
4183;DHT22;2105;52.300;9.182;2023-07-16T10:35:46;24.00;99.90
4183;DHT22;2105;52.300;9.182;2023-07-16T10:38:14;24.10;99.90
4183;DHT22;2105;52.300;9.182;2023-07-16T10:40:41;24.20;99.90
4183;DHT22;2105;52.300;9.182;2023-07-16T10:43:09;24.50;99.90
4183;DHT22;2105;52.300;9.182;2023-07-16T10:45:36;24.70;99.90
4183;DHT22;2105;52.300;9.182;2023-07-16T10:48:03;24.60;99.90
4183;DHT22;2105;52.300;9.182;2023-07-16T10:50:32;24.20;99.90
4183;DHT22;2105;52.300;9.182;2023-07-16T10:52:59;24.00;99.90
4183;DHT22;2105;52.300;9.182;2023-07-16T10:55:29;23.90;99.90
4183;DHT22;2105;52.300;9.182;2023-07-16T10:57:57;23.90;99.90
4183;DHT22;2105;52.300;9.182;2023-07-16T11:00:23;24.20;99.90
4183;DHT22;2105;52.300;9.182;2023-07-16T11:02:50;24.20;99.90
4183;DHT22;2105;52.300;9.182;2023-07-16T11:05:18;24.20;99.90
4183;DHT22;2105;52.300;9.182;2023-07-16T11:07:45;24.30;99.90
4183;DHT22;2105;52.300;9.182;2023-07-16T11:10:15;24.50;99.90
4183;DHT22;2105;52.300;9.182;2023-07-16T11:12:44;24.50;99.90
4183;DHT22;2105;52.300;9.182;2023-07-16T11:15:11;24.30;99.90
4183;DHT22;2105;52.300;9.182;2023-07-16T11:17:38;24.60;99.90
4183;DHT22;2105;52.300;9.182;2023-07-16T11:20:07;24.50;99.90
4183;DHT22;2105;52.300;9.182;2023-07-16T11:22:37;24.90;99.90
4183;DHT22;2105;52.300;9.182;2023-07-16T11:25:11;24.90;99.90
4183;DHT22;2105;52.300;9.182;2023-07-16T11:27:40;25.00;99.90
4183;DHT22;2105;52.300;9.182;2023-07-16T11:30:09;24.40;99.90
4183;DHT22;2105;52.300;9.182;2023-07-16T11:32:38;24.10;99.90
4183;DHT22;2105;52.300;9.182;2023-07-16T11:35:06;23.90;99.90
4183;DHT22;2105;52.300;9.182;2023-07-16T11:37:34;23.90;99.90
4183;DHT22;2105;52.300;9.182;2023-07-16T11:40:02;24.10;99.90
4183;DHT22;2105;52.300;9.182;2023-07-16T11:42:30;24.60;99.90
4183;DHT22;2105;52.300;9.182;2023-07-16T11:44:57;24.90;99.90
4183;DHT22;2105;52.300;9.182;2023-07-16T11:47:26;25.30;99.90
4183;DHT22;2105;52.300;9.182;2023-07-16T11:49:53;25.40;99.90
4183;DHT22;2105;52.300;9.182;2023-07-16T11:52:21;25.10;99.90
4183;DHT22;2105;52.300;9.182;2023-07-16T11:54:48;25.20;99.90
4183;DHT22;2105;52.300;9.182;2023-07-16T11:57:15;25.40;99.90
4183;DHT22;2105;52.300;9.182;2023-07-16T11:59:41;25.40;99.90
4183;DHT22;2105;52.300;9.182;2023-07-16T12:02:09;25.30;99.90
4183;DHT22;2105;52.300;9.182;2023-07-16T12:04:37;25.10;99.90
4183;DHT22;2105;52.300;9.182;2023-07-16T12:07:04;25.00;99.90
4183;DHT22;2105;52.300;9.182;2023-07-16T12:09:31;24.60;99.90
4183;DHT22;2105;52.300;9.182;2023-07-16T12:11:57;24.30;99.90
4183;DHT22;2105;52.300;9.182;2023-07-16T12:14:24;24.30;99.90
4183;DHT22;2105;52.300;9.182;2023-07-16T12:16:51;24.50;99.90
4183;DHT22;2105;52.300;9.182;2023-07-16T12:19:24;24.10;99.90
4183;DHT22;2105;52.300;9.182;2023-07-16T12:21:58;24.10;99.90
4183;DHT22;2105;52.300;9.182;2023-07-16T12:24:25;24.50;99.90
4183;DHT22;2105;52.300;9.182;2023-07-16T12:26:52;24.80;99.90
4183;DHT22;2105;52.300;9.182;2023-07-16T12:29:19;24.30;99.90
4183;DHT22;2105;52.300;9.182;2023-07-16T12:31:46;24.30;99.90
4183;DHT22;2105;52.300;9.182;2023-07-16T12:34:13;24.40;99.90
4183;DHT22;2105;52.300;9.182;2023-07-16T12:36:40;24.60;99.90
4183;DHT22;2105;52.300;9.182;2023-07-16T12:39:08;25.20;99.90
4183;DHT22;2105;52.300;9.182;2023-07-16T12:41:34;25.70;99.90
4183;DHT22;2105;52.300;9.182;2023-07-16T12:44:01;25.60;99.90
4183;DHT22;2105;52.300;9.182;2023-07-16T12:46:28;25.50;99.90
4183;DHT22;2105;52.300;9.182;2023-07-16T12:48:55;25.80;99.90
4183;DHT22;2105;52.300;9.182;2023-07-16T12:51:21;26.10;99.90
4183;DHT22;2105;52.300;9.182;2023-07-16T12:53:48;25.90;99.90
4183;DHT22;2105;52.300;9.182;2023-07-16T12:56:16;25.50;99.90
4183;DHT22;2105;52.300;9.182;2023-07-16T12:58:43;25.30;99.90
4183;DHT22;2105;52.300;9.182;2023-07-16T13:01:10;25.30;99.90
4183;DHT22;2105;52.300;9.182;2023-07-16T13:03:37;25.40;99.90
4183;DHT22;2105;52.300;9.182;2023-07-16T13:06:04;25.40;99.90
4183;DHT22;2105;52.300;9.182;2023-07-16T13:08:31;25.40;99.90
4183;DHT22;2105;52.300;9.182;2023-07-16T13:10:58;25.20;99.90
4183;DHT22;2105;52.300;9.182;2023-07-16T13:13:26;25.40;99.90
4183;DHT22;2105;52.300;9.182;2023-07-16T13:15:53;25.60;99.90
4183;DHT22;2105;52.300;9.182;2023-07-16T13:18:20;25.60;99.90
4183;DHT22;2105;52.300;9.182;2023-07-16T13:20:47;25.50;99.90
4183;DHT22;2105;52.300;9.182;2023-07-16T13:23:14;25.40;99.90
4183;DHT22;2105;52.300;9.182;2023-07-16T13:25:41;25.40;99.90
4183;DHT22;2105;52.300;9.182;2023-07-16T13:28:07;25.50;99.90
4183;DHT22;2105;52.300;9.182;2023-07-16T13:30:36;25.70;99.90
4183;DHT22;2105;52.300;9.182;2023-07-16T13:33:03;26.10;99.90
4183;DHT22;2105;52.300;9.182;2023-07-16T13:35:30;26.30;99.90
4183;DHT22;2105;52.300;9.182;2023-07-16T13:37:56;26.60;99.90
4183;DHT22;2105;52.300;9.182;2023-07-16T13:40:23;26.90;99.90
4183;DHT22;2105;52.300;9.182;2023-07-16T13:42:50;27.00;99.90
4183;DHT22;2105;52.300;9.182;2023-07-16T13:45:19;26.50;99.90
4183;DHT22;2105;52.300;9.182;2023-07-16T13:47:48;26.20;99.90
4183;DHT22;2105;52.300;9.182;2023-07-16T13:50:18;26.30;99.90
4183;DHT22;2105;52.300;9.182;2023-07-16T13:52:45;26.50;99.90
4183;DHT22;2105;52.300;9.182;2023-07-16T13:55:12;26.60;99.90
4183;DHT22;2105;52.300;9.182;2023-07-16T13:57:39;26.70;99.90
4183;DHT22;2105;52.300;9.182;2023-07-16T14:00:07;26.80;99.90
4183;DHT22;2105;52.300;9.182;2023-07-16T14:02:35;26.90;99.90
4183;DHT22;2105;52.300;9.182;2023-07-16T14:05:03;26.80;99.90
4183;DHT22;2105;52.300;9.182;2023-07-16T14:07:30;26.50;99.90
4183;DHT22;2105;52.300;9.182;2023-07-16T14:09:57;26.30;99.90
4183;DHT22;2105;52.300;9.182;2023-07-16T14:12:24;26.10;99.90
4183;DHT22;2105;52.300;9.182;2023-07-16T14:14:51;26.00;99.90
4183;DHT22;2105;52.300;9.182;2023-07-16T14:17:17;25.90;99.90
4183;DHT22;2105;52.300;9.182;2023-07-16T14:19:44;25.90;99.90
4183;DHT22;2105;52.300;9.182;2023-07-16T14:22:12;25.90;99.90
4183;DHT22;2105;52.300;9.182;2023-07-16T14:24:41;25.40;99.90
4183;DHT22;2105;52.300;9.182;2023-07-16T14:27:08;25.50;99.90
4183;DHT22;2105;52.300;9.182;2023-07-16T14:29:35;25.90;99.90
4183;DHT22;2105;52.300;9.182;2023-07-16T14:32:02;26.00;99.90
4183;DHT22;2105;52.300;9.182;2023-07-16T14:34:30;26.20;99.90
4183;DHT22;2105;52.300;9.182;2023-07-16T14:36:56;26.30;99.90
4183;DHT22;2105;52.300;9.182;2023-07-16T14:39:25;26.00;99.90
4183;DHT22;2105;52.300;9.182;2023-07-16T14:41:52;25.90;99.90
4183;DHT22;2105;52.300;9.182;2023-07-16T14:44:18;25.70;99.90
4183;DHT22;2105;52.300;9.182;2023-07-16T14:46:46;25.60;99.90
4183;DHT22;2105;52.300;9.182;2023-07-16T14:49:13;25.80;99.90
4183;DHT22;2105;52.300;9.182;2023-07-16T14:51:39;26.00;99.90
4183;DHT22;2105;52.300;9.182;2023-07-16T14:54:06;26.10;99.90
4183;DHT22;2105;52.300;9.182;2023-07-16T14:56:35;25.80;99.90
4183;DHT22;2105;52.300;9.182;2023-07-16T14:59:02;25.50;99.90
4183;DHT22;2105;52.300;9.182;2023-07-16T15:01:29;25.30;99.90
4183;DHT22;2105;52.300;9.182;2023-07-16T15:03:56;25.40;99.90
4183;DHT22;2105;52.300;9.182;2023-07-16T15:06:23;25.50;99.90
4183;DHT22;2105;52.300;9.182;2023-07-16T15:08:51;25.70;99.90
4183;DHT22;2105;52.300;9.182;2023-07-16T15:11:18;26.00;99.90
4183;DHT22;2105;52.300;9.182;2023-07-16T15:13:46;26.10;99.90
4183;DHT22;2105;52.300;9.182;2023-07-16T15:16:13;25.90;99.90
4183;DHT22;2105;52.300;9.182;2023-07-16T15:18:40;26.00;99.90
4183;DHT22;2105;52.300;9.182;2023-07-16T15:21:06;26.20;99.90
4183;DHT22;2105;52.300;9.182;2023-07-16T15:23:33;26.10;99.90
4183;DHT22;2105;52.300;9.182;2023-07-16T15:26:01;26.20;99.90
4183;DHT22;2105;52.300;9.182;2023-07-16T15:28:29;26.30;99.90
4183;DHT22;2105;52.300;9.182;2023-07-16T15:31:00;26.20;99.90
4183;DHT22;2105;52.300;9.182;2023-07-16T15:33:27;26.00;99.90
4183;DHT22;2105;52.300;9.182;2023-07-16T15:35:55;26.20;99.90
4183;DHT22;2105;52.300;9.182;2023-07-16T15:38:22;26.30;99.90
4183;DHT22;2105;52.300;9.182;2023-07-16T15:40:48;26.20;99.90
4183;DHT22;2105;52.300;9.182;2023-07-16T15:43:15;26.20;99.90
4183;DHT22;2105;52.300;9.182;2023-07-16T15:45:42;26.20;99.90
4183;DHT22;2105;52.300;9.182;2023-07-16T15:48:10;26.20;99.90
4183;DHT22;2105;52.300;9.182;2023-07-16T15:50:38;26.10;99.90
4183;DHT22;2105;52.300;9.182;2023-07-16T15:53:04;26.00;99.90
4183;DHT22;2105;52.300;9.182;2023-07-16T15:55:31;26.10;99.90
4183;DHT22;2105;52.300;9.182;2023-07-16T15:57:58;25.70;99.90
4183;DHT22;2105;52.300;9.182;2023-07-16T16:00:25;25.70;99.90
4183;DHT22;2105;52.300;9.182;2023-07-16T16:02:52;25.70;99.90
4183;DHT22;2105;52.300;9.182;2023-07-16T16:05:22;25.80;99.90
4183;DHT22;2105;52.300;9.182;2023-07-16T16:08:10;25.80;99.90
4183;DHT22;2105;52.300;9.182;2023-07-16T16:10:37;26.00;99.90